createdAt,value
2022-11-15T00:00:55.552Z,14.90
2022-11-15T00:03:24.755Z,13.82
2022-11-15T00:05:51.533Z,16.27
2022-11-15T00:08:18.206Z,16.50
2022-11-15T00:10:55.152Z,15.40
2022-11-15T00:13:21.609Z,18.25
2022-11-15T00:15:48.106Z,19.73
2022-11-15T00:18:15.653Z,14.20
2022-11-15T00:20:42.304Z,17.05
2022-11-15T00:23:08.850Z,12.63
2022-11-15T00:25:35.750Z,16.40
2022-11-15T00:28:02.782Z,16.42
2022-11-15T00:30:32.641Z,12.75
2022-11-15T00:33:06.269Z,10.60
2022-11-15T00:35:36.473Z,14.85
2022-11-15T00:38:03.728Z,15.73
2022-11-15T00:40:33.619Z,12.93
2022-11-15T00:43:00.250Z,12.32
2022-11-15T00:45:29.349Z,15.15
2022-11-15T00:47:55.839Z,16.48
2022-11-15T00:50:22.327Z,11.02
2022-11-15T00:52:49.093Z,19.70
2022-11-15T00:55:17.262Z,14.27
2022-11-15T00:57:43.867Z,18.48
2022-11-15T01:00:14.349Z,15.75
2022-11-15T01:02:40.858Z,12.10
2022-11-15T01:05:08.153Z,13.80
2022-11-15T01:07:35.033Z,19.75
2022-11-15T01:10:01.721Z,14.18
2022-11-15T01:12:28.417Z,13.80
2022-11-15T01:14:54.978Z,12.00
2022-11-15T01:17:21.482Z,14.95
2022-11-15T01:19:50.732Z,11.40
2022-11-15T01:22:17.709Z,15.38
2022-11-15T01:24:47.257Z,17.52
2022-11-15T01:27:13.708Z,13.43
2022-11-15T01:29:40.169Z,13.52
2022-11-15T01:32:06.808Z,13.57
2022-11-15T01:34:33.320Z,16.00
2022-11-15T01:36:59.869Z,15.50
2022-11-15T01:39:27.331Z,12.82
2022-11-15T01:41:54.236Z,10.65
2022-11-15T01:44:38.705Z,14.07
2022-11-15T01:47:13.188Z,13.15
2022-11-15T01:49:43.228Z,10.70
2022-11-15T01:52:21.362Z,16.35
2022-11-15T01:54:51.158Z,14.80
2022-11-15T01:57:17.719Z,13.43
2022-11-15T01:59:46.498Z,11.98
2022-11-15T02:02:13.307Z,12.13
2022-11-15T02:04:43.737Z,13.15
2022-11-15T02:07:13.310Z,8.65
2022-11-15T02:09:42.880Z,12.70
2022-11-15T02:12:10.956Z,16.98
2022-11-15T02:14:40.511Z,9.55
2022-11-15T02:17:09.871Z,14.38
2022-11-15T02:19:50.013Z,11.98
2022-11-15T02:22:47.028Z,12.50
2022-11-15T02:25:13.427Z,16.63
2022-11-15T02:27:45.840Z,14.23
2022-11-15T02:30:44.502Z,10.65
2022-11-15T02:33:20.011Z,9.38
2022-11-15T02:35:59.560Z,13.27
2022-11-15T02:38:32.440Z,11.90
2022-11-15T02:41:14.132Z,10.93
2022-11-15T02:43:58.095Z,11.32
2022-11-15T02:47:05.539Z,14.50
2022-11-15T02:49:34.937Z,13.45
2022-11-15T02:52:01.578Z,13.75
2022-11-15T02:54:34.355Z,17.73
2022-11-15T02:57:11.436Z,16.67
2022-11-15T02:59:55.931Z,11.00
2022-11-15T03:02:34.622Z,12.75
2022-11-15T03:05:10.469Z,14.35
2022-11-15T03:07:58.088Z,14.85
2022-11-15T03:10:43.569Z,11.00
2022-11-15T03:13:09.965Z,11.23
2022-11-15T03:15:45.458Z,10.25
2022-11-15T03:18:16.298Z,12.75
2022-11-15T03:20:43.907Z,14.20
2022-11-15T03:23:11.969Z,12.68
2022-11-15T03:25:43.971Z,12.90
2022-11-15T03:30:43.990Z,15.57
2022-11-15T03:33:12.297Z,10.60
2022-11-15T03:35:43.514Z,10.75
2022-11-15T03:38:21.156Z,10.38
2022-11-15T03:40:59.359Z,11.95
2022-11-15T03:43:44.348Z,10.60
2022-11-15T03:46:15.620Z,9.32
2022-11-15T03:48:47.163Z,9.75
2022-11-15T03:51:14.697Z,10.35
2022-11-15T03:53:42.235Z,9.95
2022-11-15T03:56:08.745Z,11.95
2022-11-15T03:58:35.300Z,9.32
2022-11-15T04:01:01.816Z,10.13
2022-11-15T04:03:28.452Z,10.63
2022-11-15T04:05:55.024Z,9.73
2022-11-15T04:08:21.658Z,8.77
2022-11-15T04:10:50.088Z,9.32
2022-11-15T04:13:16.574Z,7.90
2022-11-15T04:15:43.038Z,7.90
2022-11-15T04:18:10.806Z,7.40
2022-11-15T04:20:55.567Z,7.43
2022-11-15T04:23:42.917Z,10.73
2022-11-15T04:26:13.497Z,9.80
2022-11-15T04:28:58.597Z,7.70
2022-11-15T04:31:25.115Z,7.97
2022-11-15T04:33:51.646Z,7.65
2022-11-15T04:36:36.772Z,8.43
2022-11-15T04:39:03.815Z,5.80
2022-11-15T04:41:30.377Z,6.57
2022-11-15T04:43:57.127Z,5.90
2022-11-15T04:46:24.968Z,5.55
2022-11-15T04:48:58.029Z,9.02
2022-11-15T04:51:25.290Z,8.40
2022-11-15T04:53:51.773Z,7.05
2022-11-15T04:56:18.237Z,9.65
2022-11-15T04:58:44.681Z,7.50
2022-11-15T05:01:15.469Z,7.63
2022-11-15T05:04:01.531Z,7.63
2022-11-15T05:06:28.133Z,9.20
2022-11-15T05:08:54.609Z,8.07
2022-11-15T05:11:21.688Z,6.78
2022-11-15T05:13:51.558Z,8.20
2022-11-15T05:16:18.082Z,8.55
2022-11-15T05:18:44.632Z,11.15
2022-11-15T05:21:14.138Z,8.20
2022-11-15T05:23:41.935Z,13.20
2022-11-15T05:26:09.905Z,7.40
2022-11-15T05:28:40.445Z,9.20
2022-11-15T05:31:11.747Z,7.63
2022-11-15T05:33:42.235Z,12.70
2022-11-15T05:36:32.585Z,10.75
2022-11-15T05:38:59.150Z,14.65
2022-11-15T05:41:33.339Z,8.45
2022-11-15T05:44:02.162Z,8.30
2022-11-15T05:46:30.260Z,10.25
2022-11-15T05:48:57.772Z,11.68
2022-11-15T05:51:24.371Z,10.95
2022-11-15T05:53:52.850Z,17.00
2022-11-15T05:56:22.332Z,10.55
2022-11-15T05:58:48.882Z,9.45
2022-11-15T06:01:15.496Z,8.93
2022-11-15T06:03:42.033Z,9.20
2022-11-15T06:06:12.335Z,11.77
2022-11-15T06:08:42.639Z,9.73
2022-11-15T06:11:09.110Z,6.40
2022-11-15T06:13:35.822Z,7.38
2022-11-15T06:16:02.570Z,8.20
2022-11-15T06:18:29.196Z,8.98
2022-11-15T06:20:59.807Z,8.52
2022-11-15T06:23:26.421Z,10.27
2022-11-15T06:25:52.890Z,14.90
2022-11-15T06:28:19.426Z,15.77
2022-11-15T06:30:49.181Z,16.65
2022-11-15T06:33:19.482Z,15.73
2022-11-15T06:35:48.541Z,14.88
2022-11-15T06:38:15.026Z,13.93
2022-11-15T06:40:41.600Z,9.63
2022-11-15T06:43:08.642Z,14.30
2022-11-15T06:45:35.298Z,9.70
2022-11-15T06:48:01.799Z,12.40
2022-11-15T06:50:28.316Z,8.77
2022-11-15T06:52:55.556Z,8.48
2022-11-15T06:55:22.290Z,8.73
2022-11-15T06:57:52.907Z,8.07
2022-11-15T07:00:20.994Z,10.25
2022-11-15T07:02:48.131Z,6.82
2022-11-15T07:05:15.594Z,6.65
2022-11-15T07:07:42.169Z,10.55
2022-11-15T07:10:10.189Z,8.70
2022-11-15T07:12:36.969Z,11.18
2022-11-15T07:15:03.683Z,7.20
2022-11-15T07:17:30.182Z,7.78
2022-11-15T07:19:56.636Z,8.05
2022-11-15T07:22:23.108Z,7.95
2022-11-15T07:24:49.615Z,7.15
2022-11-15T07:27:16.491Z,7.85
2022-11-15T07:29:43.274Z,7.32
2022-11-15T07:32:10.525Z,8.43
2022-11-15T07:34:36.983Z,5.82
2022-11-15T07:37:06.298Z,8.38
2022-11-15T07:39:32.752Z,8.30
2022-11-15T07:42:18.671Z,8.38
2022-11-15T07:44:45.138Z,8.23
2022-11-15T07:47:11.584Z,10.43
2022-11-15T07:49:38.078Z,8.48
2022-11-15T07:52:04.765Z,9.82
2022-11-15T07:54:31.277Z,7.25
2022-11-15T07:57:00.163Z,7.00
2022-11-15T07:59:29.063Z,7.72
2022-11-15T08:01:55.592Z,8.30
2022-11-15T08:04:24.590Z,7.53
2022-11-15T08:06:51.087Z,6.90
2022-11-15T08:09:17.612Z,6.90
2022-11-15T08:11:44.121Z,8.13
2022-11-15T08:14:10.619Z,6.95
2022-11-15T08:16:37.084Z,6.85
2022-11-15T08:19:03.738Z,6.70
2022-11-15T08:21:30.216Z,7.53
2022-11-15T08:23:59.778Z,6.68
2022-11-15T08:26:30.053Z,5.13
2022-11-15T08:28:56.652Z,6.43
2022-11-15T08:31:23.157Z,5.53
2022-11-15T08:33:49.657Z,7.00
2022-11-15T08:36:17.857Z,5.07
2022-11-15T08:38:44.430Z,7.35
2022-11-15T08:41:18.053Z,7.00
2022-11-15T08:43:44.529Z,5.28
2022-11-15T08:46:14.712Z,5.55
2022-11-15T08:48:41.257Z,8.45
2022-11-15T08:51:07.875Z,7.18
2022-11-15T08:53:35.267Z,7.28
2022-11-15T08:56:02.621Z,5.75
2022-11-15T08:58:29.913Z,6.88
2022-11-15T09:00:56.901Z,7.13
2022-11-15T09:03:23.442Z,5.25
2022-11-15T09:05:49.985Z,6.45
2022-11-15T09:08:45.608Z,6.38
2022-11-15T09:11:10.804Z,5.72
2022-11-15T09:13:38.107Z,6.65
2022-11-15T09:16:05.192Z,8.18
2022-11-15T09:18:32.569Z,4.95
2022-11-15T09:21:00.314Z,6.72
2022-11-15T09:23:27.655Z,4.82
2022-11-15T09:26:00.654Z,4.97
2022-11-15T09:28:27.188Z,3.20
2022-11-15T09:31:00.526Z,4.32
2022-11-15T09:33:27.827Z,4.18
2022-11-15T09:35:54.750Z,4.65
2022-11-15T09:38:21.591Z,4.32
2022-11-15T09:40:58.580Z,6.32
2022-11-15T09:43:29.330Z,3.92
2022-11-15T09:46:13.493Z,4.60
2022-11-15T09:48:49.300Z,3.92
2022-11-15T09:51:26.173Z,6.25
2022-11-15T09:57:16.097Z,4.68
2022-11-15T10:00:44.794Z,5.03
2022-11-15T10:03:03.447Z,7.40
2022-11-15T10:05:31.370Z,6.00
2022-11-15T10:07:57.825Z,4.75
2022-11-15T10:10:44.754Z,4.18
2022-11-15T10:13:30.272Z,3.10
2022-11-15T10:16:20.814Z,3.25
2022-11-15T10:19:20.888Z,5.45
2022-11-15T10:22:24.978Z,6.95
2022-11-15T15:23:37.408Z,16.17
2022-11-15T15:26:04.165Z,9.27
2022-11-15T15:28:34.542Z,7.63
2022-11-15T15:31:02.085Z,9.20
2022-11-15T15:33:28.532Z,6.72
2022-11-15T15:35:55.033Z,7.18
2022-11-15T15:38:24.878Z,9.85
2022-11-15T15:40:51.893Z,10.68
2022-11-15T15:43:18.522Z,9.13
2022-11-15T15:45:45.962Z,11.38
2022-11-15T15:48:14.950Z,4.82
2022-11-15T15:50:43.788Z,5.70
2022-11-15T15:53:12.066Z,4.90
2022-11-15T15:55:38.839Z,6.13
2022-11-15T15:58:06.361Z,4.38
2022-11-15T16:00:36.053Z,5.82
2022-11-15T16:03:02.703Z,6.82
2022-11-15T16:05:29.257Z,7.20
2022-11-15T16:07:55.790Z,5.25
2022-11-15T16:10:30.760Z,9.60
2022-11-15T16:12:58.589Z,9.55
2022-11-15T16:15:27.419Z,8.20
2022-11-15T16:17:58.507Z,6.95
2022-11-15T16:20:32.275Z,8.87
2022-11-15T16:23:04.392Z,6.13
2022-11-15T16:25:47.991Z,9.82
2022-11-15T16:28:28.697Z,9.07
2022-11-15T16:31:05.583Z,5.32
2022-11-15T16:33:32.839Z,7.00
2022-11-15T16:35:59.659Z,7.50
2022-11-15T16:38:26.200Z,8.20
2022-11-15T16:40:52.715Z,6.82
2022-11-15T16:43:19.410Z,7.85
2022-11-15T16:45:45.944Z,8.45
2022-11-15T16:48:27.135Z,6.40
2022-11-15T16:50:58.686Z,6.85
2022-11-15T16:53:26.422Z,9.00
2022-11-15T16:55:53.347Z,8.75
2022-11-15T16:58:19.788Z,8.23
2022-11-15T17:00:50.356Z,12.50
2022-11-15T17:03:16.871Z,7.35
2022-11-15T17:05:43.359Z,9.90
2022-11-15T17:08:09.818Z,8.43
2022-11-15T17:10:44.185Z,10.27
2022-11-15T17:13:13.373Z,7.53
2022-11-15T17:15:40.150Z,7.65
2022-11-15T17:18:06.948Z,8.65
2022-11-15T17:20:33.666Z,9.45
2022-11-15T17:23:00.196Z,9.13
2022-11-15T17:25:26.734Z,8.18
2022-11-15T17:27:53.339Z,9.45
2022-11-15T17:30:20.362Z,8.68
2022-11-15T17:32:49.764Z,8.45
2022-11-15T17:35:16.456Z,10.68
2022-11-15T17:37:43.410Z,6.82
2022-11-15T17:40:10.468Z,11.15
2022-11-15T17:42:36.968Z,11.55
2022-11-15T17:45:09.325Z,13.57
2022-11-15T17:47:37.140Z,8.55
2022-11-15T17:50:04.206Z,10.05
2022-11-15T17:52:30.764Z,10.00
2022-11-15T17:54:57.222Z,16.40
2022-11-15T17:57:24.143Z,7.72
2022-11-15T17:59:50.651Z,6.93
2022-11-15T18:02:20.597Z,9.15
2022-11-15T18:04:47.086Z,12.25
2022-11-15T18:07:14.037Z,8.40
2022-11-15T18:09:43.715Z,11.05
2022-11-15T18:12:11.260Z,12.60
2022-11-15T18:14:37.715Z,14.07
2022-11-15T18:17:04.242Z,12.77
2022-11-15T18:19:30.705Z,11.00
2022-11-15T18:21:57.366Z,10.68
2022-11-15T18:24:25.659Z,11.70
2022-11-15T18:26:52.175Z,14.15
2022-11-15T18:29:19.798Z,12.52
2022-11-15T18:31:50.033Z,13.38
2022-11-15T18:34:17.519Z,11.70
2022-11-15T18:36:44.066Z,9.35
2022-11-15T18:39:16.300Z,11.75
2022-11-15T18:41:44.077Z,12.02
2022-11-15T18:44:10.681Z,11.23
2022-11-15T18:46:38.786Z,12.85
2022-11-15T18:49:07.520Z,12.32
2022-11-15T18:51:35.566Z,14.60
2022-11-15T18:54:02.739Z,12.63
2022-11-15T18:56:31.624Z,9.27
2022-11-15T18:59:00.396Z,10.18
2022-11-15T19:01:29.602Z,10.75
2022-11-15T19:03:58.631Z,14.48
2022-11-15T19:06:27.472Z,12.75
2022-11-15T19:08:57.333Z,15.43
2022-11-15T19:11:30.953Z,10.60
2022-11-15T19:14:00.037Z,11.77
2022-11-15T19:16:27.983Z,13.57
2022-11-15T19:18:59.402Z,11.82
2022-11-15T19:21:27.756Z,14.60
2022-11-15T19:23:54.570Z,14.50
2022-11-15T19:26:22.773Z,15.02
2022-11-15T19:28:58.963Z,12.93
2022-11-15T19:31:27.578Z,11.10
2022-11-15T19:33:57.696Z,11.00
2022-11-15T19:36:29.424Z,14.52
2022-11-15T19:38:56.324Z,12.40
2022-11-15T19:41:24.710Z,9.75
2022-11-15T19:43:51.908Z,10.90
2022-11-15T19:46:23.447Z,12.10
2022-11-15T19:48:51.026Z,13.57
2022-11-15T19:51:24.523Z,12.95
2022-11-15T19:53:56.123Z,12.20
2022-11-15T19:56:23.585Z,13.30
2022-11-15T19:58:52.513Z,16.88
2022-11-15T20:01:20.219Z,13.57
2022-11-15T20:03:48.093Z,11.65
2022-11-15T20:06:20.361Z,12.60
2022-11-15T20:08:48.000Z,11.85
2022-11-15T20:11:15.692Z,13.52
2022-11-15T20:13:43.201Z,11.77
2022-11-15T20:16:14.720Z,16.67
2022-11-15T20:18:41.255Z,11.20
2022-11-15T20:21:08.779Z,14.45
2022-11-15T20:23:35.358Z,11.20
2022-11-15T20:26:01.834Z,17.42
2022-11-15T20:28:28.840Z,12.05
2022-11-15T20:31:00.256Z,15.85
2022-11-15T20:33:27.951Z,14.75
2022-11-15T20:35:54.617Z,14.60
2022-11-15T20:38:21.660Z,11.40
2022-11-15T20:40:49.744Z,14.70
2022-11-15T20:43:18.884Z,14.13
2022-11-15T20:45:47.264Z,12.15
2022-11-15T20:48:14.952Z,16.45
2022-11-15T20:50:43.654Z,14.52
2022-11-15T20:53:12.697Z,10.32
2022-11-15T20:55:44.254Z,11.48
2022-11-15T20:58:11.540Z,12.05
2022-11-15T21:00:38.295Z,15.00
2022-11-15T21:03:08.642Z,17.63
2022-11-15T21:05:38.464Z,11.68
2022-11-15T21:08:05.234Z,14.88
2022-11-15T21:10:50.675Z,14.93
2022-11-15T21:13:17.252Z,12.18
2022-11-15T21:15:43.838Z,13.48
2022-11-15T21:18:10.365Z,12.98
2022-11-15T21:20:36.836Z,17.40
2022-11-15T21:23:03.452Z,17.17
2022-11-15T21:25:29.927Z,17.77
2022-11-15T21:27:56.591Z,20.05
2022-11-15T21:30:23.125Z,17.75
2022-11-15T21:32:49.732Z,20.40
2022-11-15T21:35:16.373Z,16.63
2022-11-15T21:37:42.913Z,16.83
2022-11-15T21:40:10.175Z,15.75
2022-11-15T21:42:36.655Z,16.08
2022-11-15T21:45:03.571Z,14.07
2022-11-15T21:47:30.021Z,13.65
2022-11-15T21:49:56.530Z,14.07
2022-11-15T21:52:22.999Z,18.52
2022-11-15T21:54:49.490Z,17.17
2022-11-15T21:57:15.928Z,15.10
2022-11-15T22:00:02.367Z,15.13
2022-11-15T22:02:28.804Z,13.50
2022-11-15T22:04:55.302Z,11.93
2022-11-15T22:07:23.191Z,13.05
2022-11-15T22:09:49.891Z,10.70
2022-11-15T22:12:16.338Z,11.43
2022-11-15T22:14:42.835Z,10.90
2022-11-15T22:17:09.330Z,12.32
2022-11-15T22:19:40.403Z,10.80
2022-11-15T22:22:14.055Z,10.43
2022-11-15T22:24:40.528Z,12.98
2022-11-15T22:27:07.113Z,9.23
2022-11-15T22:29:33.598Z,9.05
2022-11-15T22:32:00.132Z,5.68
2022-11-15T22:34:26.666Z,7.57
2022-11-15T22:37:19.102Z,7.45
2022-11-15T22:39:41.676Z,8.57
2022-11-15T22:42:08.204Z,13.07
2022-11-15T22:44:34.694Z,15.85
2022-11-15T22:47:01.277Z,9.77
2022-11-15T22:49:27.781Z,17.30
2022-11-15T22:51:54.259Z,14.60
2022-11-15T22:54:20.791Z,10.45
2022-11-15T22:56:47.269Z,9.25
2022-11-15T22:59:13.807Z,9.55
2022-11-15T23:01:40.316Z,12.65
2022-11-15T23:04:06.866Z,7.72
2022-11-15T23:06:33.372Z,7.68
2022-11-15T23:08:59.891Z,9.45
2022-11-15T23:11:44.773Z,10.88
2022-11-15T23:14:11.328Z,12.80
2022-11-15T23:16:37.890Z,12.10
2022-11-15T23:19:07.646Z,9.82
2022-11-15T23:21:52.789Z,8.25
2022-11-15T23:24:20.245Z,10.57
2022-11-15T23:26:49.953Z,11.35
2022-11-15T23:29:19.612Z,10.45
2022-11-15T23:32:04.835Z,8.25
2022-11-15T23:34:32.419Z,10.45
2022-11-15T23:36:59.727Z,11.38
2022-11-15T23:39:26.645Z,8.23
2022-11-15T23:41:56.312Z,9.38
2022-11-15T23:44:23.337Z,10.73
2022-11-15T23:46:49.889Z,9.68
2022-11-15T23:49:16.729Z,9.70
2022-11-15T23:51:43.352Z,10.43
2022-11-15T23:54:10.633Z,11.05
2022-11-15T23:56:37.797Z,9.93
2022-11-15T23:59:05.348Z,11.73
